Terminal Aerodrome Forecast
Issued by NWS

Home | Current Version | Previous Version | Text Only | Print | Product List | Glossary On
Versions: 1 2 3 4 5 6 7 8 9 10 11 12 13
405
FTPA31 PHFO 240524
TAFHLI
TAF
PHLI 240524Z 2406/2506 08014KT P6SM VCSH BKN025
      TEMPO 2406/2410 BKN015 OVC035
     FM241000 06012KT P6SM VCSH SCT025 BKN035=

USA.gov is the U.S. government's official web portal to all federal, state and local government web resources and services.